Time;durP1;ratioP1;P1;durP2;ratioP2;P2;SDS_P1;SDS_P2;PMS_P1;PMS_P2;Temp;Humidity;BMP_temperature;BMP_pressure;BME280_temperature;BME280_humidity;BME280_pressure;Samples;Min_cycle;Max_cycle;Signal;HPM_P1;HPM_P2
2022/05/25 00:02:22;;;;;;;4.47;1.90;;;;;;;6.20;50.97;99668.03;6217606;23;20022;-82
2022/05/25 00:04:53;;;;;;;5.40;1.73;;;;;;;6.21;51.14;99659.44;6215825;23;20017;-80
2022/05/25 00:07:23;;;;;;;4.22;1.88;;;;;;;6.41;51.08;99704.38;6191075;23;20023;-79
2022/05/25 00:09:49;;;;;;;2.97;1.75;;;;;;;6.41;50.93;99701.78;6190027;23;20020;-80
2022/05/25 00:12:21;;;;;;;3.83;1.70;;;;;;;6.38;51.16;99691.44;6215772;23;20060;-79
2022/05/25 00:14:49;;;;;;;3.65;1.85;;;;;;;6.35;51.23;99696.59;6224277;23;20027;-80
2022/05/25 00:17:16;;;;;;;3.35;1.85;;;;;;;6.37;51.36;99701.75;6181441;23;20020;-77
2022/05/25 00:20:00;;;;;;;3.20;1.88;;;;;;;6.31;51.43;99700.00;6227345;23;20023;-79
2022/05/25 00:22:39;;;;;;;3.38;1.98;;;;;;;6.13;51.27;99683.53;6191757;23;20059;-80
2022/05/25 00:25:06;;;;;;;3.60;1.70;;;;;;;6.21;51.56;99717.16;6212833;23;20031;-80
2022/05/25 00:27:32;;;;;;;2.78;1.77;;;;;;;6.01;51.58;99691.16;6214677;23;20020;-80
2022/05/25 00:29:58;;;;;;;3.65;2.13;;;;;;;5.73;52.15;99649.59;6213807;23;20458;-79
2022/05/25 00:32:24;;;;;;;3.22;1.85;;;;;;;5.98;52.65;99702.31;6162342;23;20016;-80
2022/05/25 00:34:51;;;;;;;2.60;1.80;;;;;;;5.92;52.54;99712.59;6188378;23;20530;-81
2022/05/25 00:37:17;;;;;;;3.60;1.90;;;;;;;5.80;52.35;99702.16;6212605;23;20039;-78
2022/05/25 00:39:43;;;;;;;3.42;2.00;;;;;;;5.86;52.24;99733.19;6211988;23;20023;-80
2022/05/25 00:42:09;;;;;;;5.82;2.45;;;;;;;5.51;52.64;99684.66;6213719;23;20021;-82
2022/05/25 00:44:35;;;;;;;3.70;2.20;;;;;;;5.63;52.44;99720.91;6212691;23;20453;-80
2022/05/25 00:47:03;;;;;;;4.10;2.10;;;;;;;5.60;53.04;99731.22;6215984;23;20016;-80
2022/05/25 00:49:32;;;;;;;4.55;2.22;;;;;;;5.37;52.73;99698.31;6164309;23;20016;-82
2022/05/25 00:52:05;;;;;;;6.55;2.17;;;;;;;5.52;53.37;99738.03;6212557;23;20038;-78
2022/05/25 00:54:39;;;;;;;3.47;1.88;;;;;;;5.50;53.71;99737.13;6162916;23;20016;-80
2022/05/25 00:57:21;;;;;;;7.85;2.38;;;;;;;5.37;53.83;99712.91;6187094;23;20021;-80
2022/05/25 00:59:56;;;;;;;;;;;;;;;5.52;53.70;99740.59;6187469;23;20023;-80
2022/05/25 01:02:23;;;;;;;4.85;2.38;;;;;;;5.60;53.71;99746.72;6212429;23;19931;-79
2022/05/25 01:04:49;;;;;;;3.35;2.10;;;;;;;5.70;53.32;99748.53;6213842;23;20067;-82
2022/05/25 01:07:27;;;;;;;4.30;2.10;;;;;;;5.83;54.06;99746.09;6186110;23;20027;-79
2022/05/25 01:10:09;;;;;;;4.40;2.25;;;;;;;5.91;53.67;99743.56;6162051;23;20032;-79
2022/05/25 01:12:55;;;;;;;3.38;2.00;;;;;;;5.97;53.70;99739.31;6163319;23;20454;-80
2022/05/25 01:15:37;;;;;;;3.50;2.00;;;;;;;6.05;53.14;99751.50;6212678;23;20335;-79
2022/05/25 01:18:15;;;;;;;4.85;2.22;;;;;;;6.09;54.04;99746.34;6187517;23;20018;-80
2022/05/25 01:20:59;;;;;;;3.55;1.95;;;;;;;6.09;53.20;99737.72;6211541;23;20573;-80
2022/05/25 01:23:25;;;;;;;5.00;2.50;;;;;;;6.15;53.68;99751.56;6211173;23;20016;-80
2022/05/25 01:25:57;;;;;;;4.95;2.30;;;;;;;6.14;53.25;99748.97;6186402;23;20111;-79
2022/05/25 01:28:45;;;;;;;4.88;2.13;;;;;;;6.12;53.29;99755.84;6211888;23;20027;-78
2022/05/25 01:31:20;;;;;;;4.78;2.28;;;;;;;6.01;53.35;99750.56;6213429;23;20013;-79
2022/05/25 01:34:07;;;;;;;4.28;2.10;;;;;;;5.98;53.48;99747.94;6193007;23;20020;-81
2022/05/25 01:37:06;;;;;;;4.78;2.30;;;;;;;5.96;53.53;99753.09;6213844;23;20025;-81
2022/05/25 01:39:40;;;;;;;5.90;2.35;;;;;;;5.96;54.24;99760.84;6214424;23;20028;-79
2022/05/25 01:43:24;;;;;;;3.55;2.38;;;;;;;5.51;53.67;99695.00;6220563;23;20021;-81
2022/05/25 01:45:57;;;;;;;5.53;2.40;;;;;;;5.76;54.28;99747.72;6059328;23;20161;-85
2022/05/25 01:49:03;;;;;;;4.28;2.17;;;;;;;5.90;54.22;99772.84;6214347;23;20112;-81
2022/05/25 01:52:02;;;;;;;3.88;2.33;;;;;;;5.60;54.11;99728.66;6215299;23;20027;-79
2022/05/25 01:54:45;;;;;;;3.90;2.35;;;;;;;5.87;54.43;99797.78;6215418;23;20024;-78
2022/05/25 01:57:21;;;;;;;5.05;2.20;;;;;;;5.62;53.63;99738.97;6217934;23;20017;-80
2022/05/25 01:59:48;;;;;;;4.70;2.55;;;;;;;5.73;53.90;99751.16;6191985;23;20016;-79
2022/05/25 02:05:05;;;;;;;4.43;2.30;;;;;;;5.70;54.44;99732.19;6191215;23;20027;-80
2022/05/25 02:07:52;;;;;;;5.20;2.50;;;;;;;5.99;53.96;99778.06;6218970;23;20028;-79
2022/05/25 02:10:28;;;;;;;4.95;2.45;;;;;;;5.95;54.47;99771.16;6221965;23;20129;-80
2022/05/25 02:13:22;;;;;;;6.78;2.45;;;;;;;6.10;54.21;99776.50;6229848;23;20040;-82
2022/05/25 02:15:55;;;;;;;5.88;2.50;;;;;;;6.13;54.22;99780.81;6178047;23;20140;-81
2022/05/25 02:18:45;;;;;;;4.53;2.20;;;;;;;6.19;54.18;99786.06;6217095;23;20020;-80
2022/05/25 02:21:41;;;;;;;5.13;2.42;;;;;;;6.21;54.33;99780.88;6219252;23;20017;-81
2022/05/25 02:24:19;;;;;;;4.47;2.47;;;;;;;6.34;54.10;99793.06;6221731;23;20017;-80
2022/05/25 02:27:15;;;;;;;4.18;2.42;;;;;;;6.27;54.48;99768.03;6224884;23;20017;-79
2022/05/25 02:29:45;;;;;;;4.55;2.40;;;;;;;6.43;54.80;99797.44;6178186;23;20042;-80
2022/05/25 02:32:39;;;;;;;8.13;2.60;;;;;;;6.52;54.02;99786.31;6192880;23;20350;-77
2022/05/25 02:35:07;;;;;;;5.03;2.17;;;;;;;6.45;54.48;99763.00;6221087;23;20039;-79
2022/05/25 02:37:34;;;;;;;3.78;2.60;;;;;;;6.65;53.61;99792.44;6189522;23;20524;-81
2022/05/25 02:40:04;;;;;;;7.22;2.80;;;;;;;6.53;53.54;99767.38;6214351;23;20027;-79
2022/05/25 02:42:30;;;;;;;4.60;2.35;;;;;;;6.59;54.08;99765.69;6215431;23;20021;-80
2022/05/25 02:44:57;;;;;;;3.65;2.40;;;;;;;6.80;54.27;99792.53;6213519;23;20016;-79
2022/05/25 02:47:23;;;;;;;4.57;2.20;;;;;;;6.75;53.91;99758.88;6213891;23;20020;-81
2022/05/25 02:49:49;;;;;;;6.03;2.20;;;;;;;6.91;54.00;99783.13;6189230;23;20066;-80
2022/05/25 02:52:16;;;;;;;5.20;1.92;;;;;;;6.83;54.07;99758.09;6190043;23;20162;-79
2022/05/25 02:54:42;;;;;;;5.72;2.35;;;;;;;7.08;54.11;99783.19;6215664;23;20044;-80
2022/05/25 02:57:08;;;;;;;3.47;2.30;;;;;;;7.05;54.06;99761.63;6225002;23;20027;-80
2022/05/25 02:59:35;;;;;;;3.25;2.10;;;;;;;6.86;53.32;99714.97;6227930;23;20070;-78
2022/05/25 03:02:02;;;;;;;4.38;2.10;;;;;;;7.31;53.62;99769.50;6168233;23;20027;-81
2022/05/25 03:04:28;;;;;;;6.35;2.80;;;;;;;7.39;52.94;99778.19;6189260;23;20017;-81
2022/05/25 03:06:54;;;;;;;7.38;2.72;;;;;;;7.09;53.07;99709.03;6214635;23;20321;-81
2022/05/25 03:09:20;;;;;;;4.25;2.22;;;;;;;7.54;53.34;99774.78;6213968;23;20064;-80
2022/05/25 03:11:46;;;;;;;3.72;2.13;;;;;;;7.57;53.03;99760.97;6189381;23;20024;-80
2022/05/25 03:14:12;;;;;;;5.35;2.40;;;;;;;7.86;52.71;99774.84;6213508;23;20024;-79
2022/05/25 03:16:39;;;;;;;3.78;1.98;;;;;;;7.97;52.44;99781.75;6214769;23;20013;-79
2022/05/25 03:19:07;;;;;;;4.72;2.67;;;;;;;8.01;52.42;99768.81;6214458;23;20016;-80
2022/05/25 03:21:41;;;;;;;4.05;2.55;;;;;;;8.08;52.44;99770.56;6190207;23;20020;-79
2022/05/25 03:24:07;;;;;;;4.47;3.17;;;;;;;8.27;51.79;99787.00;6187970;23;20034;-81
2022/05/25 03:26:34;;;;;;;5.47;2.92;;;;;;;8.35;51.46;99764.50;6187765;23;20099;-79
2022/05/25 03:29:01;;;;;;;4.65;2.63;;;;;;;8.68;51.42;99790.47;6188050;23;20016;-81
2022/05/25 03:31:27;;;;;;;4.57;2.70;;;;;;;8.71;50.86;99780.06;6187558;23;20464;-80
2022/05/25 03:33:53;;;;;;;5.35;2.80;;;;;;;8.90;50.60;99775.72;6214272;23;20016;-78
2022/05/25 03:36:18;;;;;;;4.63;2.90;;;;;;;9.17;50.08;99798.13;6213000;23;20067;-79
2022/05/25 03:38:44;;;;;;;6.53;3.10;;;;;;;9.28;49.95;99779.03;6213761;23;20470;-80
2022/05/25 03:41:17;;;;;;;4.72;2.80;;;;;;;9.59;49.45;99771.13;6214481;23;20107;-82
2022/05/25 03:43:47;;;;;;;5.50;2.95;;;;;;;9.97;48.90;99769.16;6216448;23;20016;-84
2022/05/25 03:46:16;;;;;;;9.82;3.50;;;;;;;10.39;48.75;99770.59;6165015;23;20035;-80
2022/05/25 03:48:42;;;;;;;5.25;3.50;;;;;;;10.90;47.58;99781.41;6190731;23;20023;-79
2022/05/25 03:51:08;;;;;;;4.35;2.72;;;;;;;11.28;47.08;99786.16;6220299;23;20022;-79
2022/05/25 03:53:38;;;;;;;7.47;3.22;;;;;;;11.59;45.88;99787.53;6218462;23;20059;-79
2022/05/25 03:56:05;;;;;;;5.07;3.53;;;;;;;11.63;44.99;99742.31;6216629;23;20039;-79
2022/05/25 03:58:31;;;;;;;5.28;3.55;;;;;;;12.19;44.96;99788.47;6191338;23;20013;-80
2022/05/25 04:00:57;;;;;;;5.70;3.60;;;;;;;12.41;44.54;99770.69;6224895;23;20016;-79
2022/05/25 04:03:24;;;;;;;8.27;4.03;;;;;;;12.50;43.43;99757.50;6198188;23;20012;-80
2022/05/25 04:05:50;;;;;;;4.95;3.30;;;;;;;12.69;43.11;99748.50;6174639;23;20027;-81
2022/05/25 04:08:16;;;;;;;4.72;3.67;;;;;;;12.92;42.43;99737.59;6177035;23;20336;-81
2022/05/25 04:10:42;;;;;;;5.63;4.05;;;;;;;13.19;41.90;99736.16;6230549;23;20021;-81
2022/05/25 04:13:09;;;;;;;7.43;3.35;;;;;;;13.53;41.16;99730.28;6217417;23;20021;-81
2022/05/25 04:15:35;;;;;;;5.47;3.10;;;;;;;14.18;40.69;99769.75;6217422;23;20062;-81
2022/05/25 04:18:01;;;;;;;4.95;3.30;;;;;;;14.51;39.66;99763.72;6189618;23;20023;-83
2022/05/25 04:20:29;;;;;;;4.40;3.10;;;;;;;14.89;39.00;99783.69;6214099;23;20070;-78
2022/05/25 04:22:55;;;;;;;3.80;2.90;;;;;;;14.84;38.71;99709.59;6213488;23;20021;-81
2022/05/25 04:25:23;;;;;;;6.38;3.28;;;;;;;14.99;38.01;99729.28;6212063;23;20024;-78
2022/05/25 04:27:52;;;;;;;4.45;3.00;;;;;;;15.60;37.43;99780.81;6188548;23;20112;-78
2022/05/25 04:30:22;;;;;;;6.20;3.40;;;;;;;15.68;37.02;99761.38;6213166;23;20024;-80
2022/05/25 04:32:50;;;;;;;5.20;3.50;;;;;;;15.54;36.62;99706.72;6215216;23;20121;-79
2022/05/25 04:35:16;;;;;;;6.93;3.78;;;;;;;15.70;35.99;99730.72;6214696;23;20020;-78
2022/05/25 04:37:48;;;;;;;6.32;4.13;;;;;;;15.84;35.98;99741.63;6213199;23;20028;-80
2022/05/25 04:40:27;;;;;;;4.80;3.55;;;;;;;16.21;35.25;99774.59;6214776;23;20031;-79
2022/05/25 04:42:55;;;;;;;6.90;3.88;;;;;;;16.21;34.96;99735.22;6215656;23;20016;-79
2022/05/25 04:45:22;;;;;;;5.70;3.08;;;;;;;16.47;34.62;99767.59;6214927;23;20181;-79
2022/05/25 04:47:53;;;;;;;6.40;3.45;;;;;;;16.40;34.19;99734.59;6217460;23;20013;-81
2022/05/25 04:50:23;;;;;;;5.55;3.40;;;;;;;16.72;33.91;99764.13;6217586;23;20070;-82
2022/05/25 04:52:51;;;;;;;6.10;3.45;;;;;;;16.95;33.73;99768.63;6215229;23;20074;-81
2022/05/25 04:58:55;;;;;;;6.65;2.90;;;;;;;17.06;32.69;99727.94;6214009;23;20020;-80
2022/05/25 05:01:24;;;;;;;4.55;2.63;;;;;;;17.07;32.69;99717.38;6215324;23;20016;-79
2022/05/25 05:03:50;;;;;;;4.05;2.80;;;;;;;17.60;32.24;99765.34;6216301;23;20016;-80
2022/05/25 05:06:17;;;;;;;4.15;2.38;;;;;;;17.21;31.81;99727.41;6167056;23;20024;-77
2022/05/25 05:09:15;;;;;;;4.95;2.45;;;;;;;17.12;31.70;99733.81;6216108;23;20019;-80
2022/05/25 05:11:47;;;;;;;3.50;2.40;;;;;;;17.55;31.55;99762.91;6162883;23;20021;-79
2022/05/25 05:14:17;;;;;;;2.80;2.15;;;;;;;17.56;31.40;99704.13;6164264;23;20040;-78
2022/05/25 05:16:43;;;;;;;4.38;2.70;;;;;;;17.65;30.97;99775.72;6192153;23;20099;-77
2022/05/25 05:19:48;;;;;;;4.57;1.92;;;;;;;17.49;30.73;99759.66;6188888;23;20024;-77
2022/05/25 05:22:26;;;;;;;4.35;2.15;;;;;;;17.33;30.60;99747.06;6188712;23;20047;-77
2022/05/25 05:25:17;;;;;;;3.53;2.03;;;;;;;17.28;30.47;99736.75;6214939;23;20069;-77
2022/05/25 05:27:46;;;;;;;4.75;1.77;;;;;;;17.61;30.42;99740.75;6188440;23;20016;-76
2022/05/25 05:30:45;;;;;;;4.82;2.30;;;;;;;17.75;29.34;99780.56;6190363;23;20023;-79
2022/05/25 05:33:24;;;;;;;4.85;2.00;;;;;;;16.85;29.79;99715.50;6215046;23;20552;-79
2022/05/25 05:36:06;;;;;;;4.63;2.03;;;;;;;16.46;30.16;99730.91;6213141;23;20013;-79
2022/05/25 05:39:07;;;;;;;4.07;1.92;;;;;;;16.48;30.58;99740.44;6215193;23;20099;-78
2022/05/25 05:42:17;;;;;;;2.92;2.05;;;;;;;17.52;30.48;99714.84;6189423;23;20020;-80
2022/05/25 05:45:31;;;;;;;2.45;1.70;;;;;;;20.13;28.56;99699.88;6077455;23;20137;-78
2022/05/25 05:48:34;;;;;;;1.92;1.73;;;;;;;20.13;28.56;99699.88;6105237;23;20028;-79
2022/05/25 05:51:04;;;;;;;3.22;1.50;;;;;;;24.51;23.67;99754.81;6215420;23;20481;-78
2022/05/25 05:53:36;;;;;;;4.30;1.65;;;;;;;23.94;23.78;99729.34;6189565;23;20017;-79
2022/05/25 05:56:04;;;;;;;2.83;2.00;;;;;;;22.94;23.60;99734.75;6164911;23;20016;-79
2022/05/25 05:58:32;;;;;;;6.13;2.00;;;;;;;22.45;24.64;99749.16;6214668;23;20012;-79
2022/05/25 06:00:59;;;;;;;5.47;1.95;;;;;;;24.67;23.11;99745.78;6214153;23;20012;-81
2022/05/25 06:03:29;;;;;;;21.98;17.00;;;;;;;25.19;22.21;99736.00;6186519;23;20048;-80
2022/05/25 06:05:55;;;;;;;8.32;5.10;;;;;;;27.09;21.23;99728.19;6186367;23;20031;-79
2022/05/25 06:08:23;;;;;;;4.57;2.53;;;;;;;26.64;20.13;99699.59;6211850;23;20024;-78
2022/05/25 06:10:59;;;;;;;7.15;5.70;;;;;;;24.89;20.67;99705.25;6162404;23;20027;-77
2022/05/25 06:13:26;;;;;;;7.05;5.32;;;;;;;23.30;21.17;99729.88;6213368;23;20023;-79
2022/05/25 06:19:26;;;;;;;5.70;3.70;;;;;;;22.51;22.48;99652.50;6213667;23;20095;-78
2022/05/25 06:22:08;;;;;;;14.48;10.40;;;;;;;26.64;20.37;99757.47;6166474;23;20016;-77
2022/05/25 06:24:44;;;;;;;6.03;2.83;;;;;;;28.55;18.71;99756.44;6213449;23;20545;-77
2022/05/25 06:27:25;;;;;;;5.47;3.47;;;;;;;30.30;17.25;99708.88;6210683;23;20016;-78
2022/05/25 06:29:51;;;;;;;5.68;3.30;;;;;;;31.30;16.26;99675.31;6210489;23;20342;-79
2022/05/25 06:32:27;;;;;;;4.35;3.55;;;;;;;33.02;15.64;99736.91;6213158;23;20065;-78
2022/05/25 06:35:06;;;;;;;7.28;4.03;;;;;;;31.38;15.10;99664.66;6212747;23;20020;-78
2022/05/25 06:37:45;;;;;;;8.88;6.07;;;;;;;28.91;15.90;99665.91;6213631;23;20651;-79
2022/05/25 06:40:18;;;;;;;10.85;9.23;;;;;;;27.49;17.17;99727.66;6211811;23;20401;-78
2022/05/25 06:42:45;;;;;;;4.10;2.20;;;;;;;29.36;17.17;99758.44;6162818;23;20457;-81
2022/05/25 06:45:11;;;;;;;2.42;2.17;;;;;;;31.30;15.13;99726.38;6218448;23;20020;-80
2022/05/25 06:47:38;;;;;;;4.95;2.67;;;;;;;31.57;14.43;99725.47;6213532;23;20043;-78
2022/05/25 06:50:21;;;;;;;4.55;3.60;;;;;;;31.78;14.55;99679.50;6187985;23;20020;-78
2022/05/25 06:52:54;;;;;;;29.23;22.40;;;;;;;33.53;13.74;99728.03;6192055;23;20305;-78
2022/05/25 06:55:29;;;;;;;17.35;12.40;;;;;;;34.93;12.53;99688.50;6216464;23;20008;-79
2022/05/25 06:57:59;;;;;;;7.20;5.45;;;;;;;35.79;11.70;99699.34;6197333;23;20357;-78
2022/05/25 07:00:34;;;;;;;12.32;7.22;;;;;;;36.04;11.42;99666.72;6193180;23;20017;-80
2022/05/25 07:03:06;;;;;;;11.10;9.75;;;;;;;34.22;11.79;99725.09;6195617;23;20051;-78
2022/05/25 07:05:44;;;;;;;;;;;;;;;31.65;12.97;99757.84;6193774;23;20027;-79
2022/05/25 07:08:12;;;;;;;13.65;6.32;;;;;;;29.63;14.17;99697.13;6186790;23;19916;-79
2022/05/25 07:10:46;;;;;;;6.22;5.20;;;;;;;31.83;13.59;99677.22;6189289;23;20024;-78
2022/05/25 07:13:20;;;;;;;5.47;2.85;;;;;;;34.58;11.74;99693.31;6213861;23;20069;-78
2022/05/25 07:16:27;;;;;;;5.15;3.72;;;;;;;36.63;11.04;99662.41;6221758;23;20016;-79
2022/05/25 07:19:28;;;;;;;2.70;1.83;;;;;;;38.19;10.05;99739.91;6219433;23;20040;-76
2022/05/25 07:21:55;;;;;;;3.97;2.53;;;;;;;39.12;9.43;99689.09;6215395;23;20466;-79
2022/05/25 07:24:37;;;;;;;3.25;2.67;;;;;;;38.46;9.02;99696.66;6195213;23;20085;-80
2022/05/25 07:27:04;;;;;;;5.47;2.38;;;;;;;37.65;9.85;99663.41;6217793;23;20090;-81
2022/05/25 07:29:39;;;;;;;2.65;1.60;;;;;;;38.71;8.86;99731.53;6191653;23;20088;-80
2022/05/25 07:32:14;;;;;;;3.17;2.47;;;;;;;36.79;9.04;99696.59;6215775;23;20016;-80
2022/05/25 07:40:29;;;;;;;2.80;1.80;;;;;;;39.45;8.64;99730.03;6124007;23;20044;-79
2022/05/25 07:43:01;;;;;;;2.90;1.48;;;;;;;39.96;8.20;99683.41;6114522;23;20044;-80
2022/05/25 07:45:35;;;;;;;3.13;1.90;;;;;;;40.31;7.94;99670.41;6190519;23;20012;-78
2022/05/25 07:48:10;;;;;;;5.57;2.53;;;;;;;41.37;7.24;99656.63;6169508;23;20023;-79
2022/05/25 07:50:38;;;;;;;4.72;3.10;;;;;;;41.93;7.09;99662.28;6181105;23;20007;-78
2022/05/25 07:55:55;;;;;;;5.38;2.35;;;;;;;42.87;6.96;99712.47;6221650;23;20021;-78
2022/05/25 07:59:41;;;;;;;4.30;3.10;;;;;;;43.44;5.98;99731.31;6215489;23;20043;-80
2022/05/25 08:08:14;;;;;;;3.60;2.10;;;;;;;41.82;6.21;99652.13;6187266;23;20020;-78
2022/05/25 08:11:26;;;;;;;4.60;2.42;;;;;;;38.10;7.36;99676.75;6189950;23;20515;-80
2022/05/25 08:14:11;;;;;;;4.35;2.42;;;;;;;35.49;8.84;99729.00;6155751;23;20036;-77
2022/05/25 08:16:36;;;;;;;6.80;2.30;;;;;;;33.07;9.68;99744.53;6187552;23;20030;-78
2022/05/25 08:19:06;;;;;;;4.40;2.20;;;;;;;31.64;10.19;99739.19;6162681;23;20088;-79
2022/05/25 08:21:33;;;;;;;4.78;2.20;;;;;;;31.18;10.99;99666.59;6140060;23;20017;-77
2022/05/25 08:23:59;;;;;;;3.13;2.17;;;;;;;34.16;9.99;99731.16;6188749;23;20065;-76
2022/05/25 08:26:25;;;;;;;4.97;2.58;;;;;;;36.37;9.43;99719.69;6188219;23;20016;-78
2022/05/25 08:28:51;;;;;;;5.57;1.90;;;;;;;38.11;8.15;99727.31;6187833;23;20044;-76
2022/05/25 08:31:20;;;;;;;3.70;2.10;;;;;;;39.10;8.03;99711.03;6163810;23;20016;-77
2022/05/25 08:33:46;;;;;;;3.38;2.17;;;;;;;39.83;7.47;99704.16;6165505;23;20031;-78
2022/05/25 08:36:12;;;;;;;7.03;2.38;;;;;;;40.78;7.28;99716.66;6164072;23;20016;-77
2022/05/25 08:38:38;;;;;;;3.97;2.00;;;;;;;41.41;6.94;99714.31;6138658;23;20024;-78
2022/05/25 08:41:04;;;;;;;5.13;2.30;;;;;;;41.30;6.19;99706.81;6142420;23;20028;-78
2022/05/25 08:43:47;;;;;;;6.35;2.10;;;;;;;40.49;6.87;99704.34;6166733;23;20016;-78
2022/05/25 08:46:22;;;;;;;2.72;2.10;;;;;;;41.22;6.83;99714.22;6218383;23;20090;-77
2022/05/25 08:48:53;;;;;;;3.53;2.40;;;;;;;42.04;6.26;99695.44;6216345;23;20036;-79
2022/05/25 08:51:25;;;;;;;5.00;2.63;;;;;;;41.43;6.15;99646.72;6216925;23;20016;-77
2022/05/25 08:54:03;;;;;;;3.35;2.17;;;;;;;42.37;6.02;99707.94;6223027;23;20071;-78
2022/05/25 08:56:39;;;;;;;2.50;2.30;;;;;;;42.77;5.91;99721.19;6234184;23;20020;-77
2022/05/25 08:59:45;;;;;;;5.18;2.28;;;;;;;43.43;5.73;99706.94;6232586;23;20020;-78
2022/05/25 09:02:23;;;;;;;3.00;2.33;;;;;;;43.19;5.54;99669.31;6218598;23;20023;-79
2022/05/25 09:05:09;;;;;;;5.57;4.45;;;;;;;40.48;6.09;99713.56;6216185;23;20405;-78
2022/05/25 09:08:00;;;;;;;4.38;2.33;;;;;;;37.49;7.33;99718.75;6215108;23;20012;-78
2022/05/25 09:10:30;;;;;;;4.20;2.40;;;;;;;36.88;7.53;99709.00;6187959;23;20048;-76
2022/05/25 09:13:16;;;;;;;4.53;2.70;;;;;;;36.21;7.94;99693.63;6213735;23;20025;-78
2022/05/25 09:19:09;;;;;;;2.65;2.45;;;;;;;39.74;7.02;99705.38;6188223;23;20099;-78
2022/05/25 09:22:13;;;;;;;2.80;2.30;;;;;;;41.18;6.60;99674.78;6186427;23;20036;-76
2022/05/25 09:28:44;;;;;;;;;;;;;;;;;;;;;
2022/05/25 09:31:25;;;;;;;3.08;2.35;;;;;;;41.78;6.18;99695.38;6156151;23;20021;-79
2022/05/25 09:37:18;;;;;;;12.88;5.22;;;;;;;40.19;6.45;99653.00;6201144;23;20017;-76
2022/05/25 09:39:45;;;;;;;13.38;10.50;;;;;;;37.85;7.41;99698.03;6214361;23;20016;-77
2022/05/25 09:42:18;;;;;;;9.88;7.97;;;;;;;36.06;8.41;99686.31;6212741;23;20470;-79
2022/05/25 09:44:56;;;;;;;4.40;2.35;;;;;;;37.42;8.07;99701.53;6216223;23;20020;-78
2022/05/25 09:47:44;;;;;;;2.88;2.35;;;;;;;39.32;7.22;99702.75;6214682;23;20020;-79
2022/05/25 09:54:15;;;;;;;2.83;2.03;;;;;;;40.45;6.19;99676.69;6212591;23;20078;-77
2022/05/25 09:57:30;;;;;;;16.38;11.02;;;;;;;40.94;6.35;99698.13;6214350;23;20046;-79
2022/05/25 10:00:18;;;;;;;4.65;2.90;;;;;;;40.08;6.24;99678.19;6175593;23;20017;-77
2022/05/25 10:03:22;;;;;;;6.55;4.65;;;;;;;37.77;6.97;99692.72;6186102;23;20023;-79
2022/05/25 10:06:15;;;;;;;3.08;2.35;;;;;;;35.46;7.61;99688.78;6212595;23;20086;-79
2022/05/25 10:08:58;;;;;;;7.30;3.72;;;;;;;34.02;8.77;99694.91;6162680;23;20008;-79
2022/05/25 10:11:57;;;;;;;7.10;2.40;;;;;;;34.98;8.42;99667.19;6171460;23;20017;-78
2022/05/25 10:14:43;;;;;;;3.03;2.03;;;;;;;35.98;8.23;99673.69;6141556;23;20016;-80
2022/05/25 10:18:14;;;;;;;10.48;5.40;;;;;;;37.21;7.48;99662.50;6169834;23;20370;-76
2022/05/25 10:21:31;;;;;;;3.45;2.08;;;;;;;37.38;7.60;99621.59;6213879;23;20055;-78
2022/05/25 10:24:00;;;;;;;3.40;2.30;;;;;;;37.03;7.39;99670.22;6222438;23;20084;-80
2022/05/25 10:26:38;;;;;;;7.05;3.50;;;;;;;35.34;8.01;99658.56;6223146;23;20067;-79
2022/05/25 10:29:11;;;;;;;7.50;3.40;;;;;;;33.36;8.93;99665.09;6224574;23;20013;-79
2022/05/25 10:38:04;;;;;;;7.45;4.00;;;;;;;28.72;11.24;99639.91;6220255;23;20024;-80
2022/05/25 10:40:31;;;;;;;3.50;2.53;;;;;;;27.34;11.77;99606.84;6222425;22;20013;-80
2022/05/25 10:43:03;;;;;;;16.67;10.30;;;;;;;26.35;12.83;99587.19;6251656;23;20051;-84
2022/05/25 10:45:51;;;;;;;9.50;4.30;;;;;;;25.62;13.65;99622.84;6204368;23;20023;-81
2022/05/25 10:48:39;;;;;;;8.90;5.60;;;;;;;24.34;14.23;99543.28;6224603;23;20020;-79
2022/05/25 10:51:23;;;;;;;10.73;6.95;;;;;;;24.52;14.47;99609.41;6246978;23;20414;-83
2022/05/25 10:57:17;;;;;;;7.05;2.63;;;;;;;24.03;15.11;99665.00;6253673;23;20161;-82
2022/05/25 11:00:07;;;;;;;31.48;22.50;;;;;;;23.44;15.30;99636.97;6204783;23;20098;-81
2022/05/25 11:02:43;;;;;;;20.63;13.43;;;;;;;23.32;15.76;99664.28;6233000;23;20020;-80
2022/05/25 11:05:27;;;;;;;88.30;61.28;;;;;;;22.97;16.25;99670.00;6205972;23;20023;-82
2022/05/25 11:08:04;;;;;;;12.65;8.18;;;;;;;22.78;16.29;99670.31;6253951;23;20019;-81
2022/05/25 11:10:45;;;;;;;16.58;9.65;;;;;;;22.54;16.71;99676.16;6206348;23;20020;-83
2022/05/25 11:13:30;;;;;;;12.13;10.00;;;;;;;22.25;16.99;99674.28;6260524;23;20020;-81
2022/05/25 11:16:39;;;;;;;;;;;;;;;;;;;;;
2022/05/25 11:20:01;;;;;;;17.48;8.43;;;;;;;21.75;16.90;99664.88;6223796;23;20020;-81
2022/05/25 11:23:03;;;;;;;13.00;9.40;;;;;;;21.57;16.91;99605.88;6223926;23;20020;-80
2022/05/25 11:25:39;;;;;;;12.43;5.50;;;;;;;21.68;17.29;99659.06;6246975;23;20020;-81
2022/05/25 11:28:17;;;;;;;4.25;2.60;;;;;;;21.47;17.41;99653.19;6250507;23;20135;-81
2022/05/25 11:30:53;;;;;;;4.97;3.85;;;;;;;21.22;18.05;99658.06;6228136;23;20079;-80
2022/05/25 11:33:41;;;;;;;6.45;4.50;;;;;;;21.07;18.30;99662.41;6205052;23;20012;-78
2022/05/25 11:36:22;;;;;;;24.60;16.40;;;;;;;20.60;18.16;99649.94;6239251;23;20020;-77
2022/05/25 11:39:21;;;;;;;3.03;2.38;;;;;;;20.12;18.66;99652.38;6214176;23;20020;-78
2022/05/25 11:41:57;;;;;;;4.55;2.80;;;;;;;19.60;18.24;99634.69;6249457;22;20024;-80
2022/05/25 11:44:25;;;;;;;10.15;4.60;;;;;;;19.51;18.87;99665.03;6195589;23;20015;-77
2022/05/25 11:46:52;;;;;;;8.00;3.95;;;;;;;19.43;19.23;99636.38;6248824;23;20046;-78
2022/05/25 11:50:09;;;;;;;4.88;2.97;;;;;;;19.39;19.32;99662.06;6222208;23;20012;-80
2022/05/25 11:53:08;;;;;;;9.90;5.75;;;;;;;19.12;19.68;99658.94;6206890;23;20020;-81
2022/05/25 11:55:53;;;;;;;5.57;3.55;;;;;;;18.95;19.86;99667.66;6201968;23;20020;-81
2022/05/25 11:59:01;;;;;;;9.45;4.07;;;;;;;18.79;19.82;99667.44;6251773;23;20018;-81
2022/05/25 12:02:09;;;;;;;15.13;10.63;;;;;;;18.36;20.27;99605.22;6208331;23;20012;-81
2022/05/25 12:04:57;;;;;;;4.63;2.40;;;;;;;18.77;19.92;99664.84;6157615;23;20024;-80
2022/05/25 12:07:55;;;;;;;3.90;2.13;;;;;;;17.94;20.59;99611.38;6176950;23;20023;-79
2022/05/25 12:10:29;;;;;;;7.07;3.85;;;;;;;18.15;20.73;99672.81;6171078;23;20016;-79
2022/05/25 12:13:12;;;;;;;5.53;3.17;;;;;;;17.96;20.75;99672.72;6196817;23;20012;-79
2022/05/25 12:16:10;;;;;;;12.43;6.53;;;;;;;17.84;21.25;99655.66;6222360;23;20020;-80
2022/05/25 12:19:07;;;;;;;4.28;1.90;;;;;;;17.97;21.19;99658.66;6197291;23;20039;-77
2022/05/25 12:21:37;;;;;;;11.82;6.65;;;;;;;18.05;21.24;99664.44;6172974;23;20103;-79
2022/05/25 12:24:11;;;;;;;14.45;9.23;;;;;;;17.85;21.43;99643.34;6228277;23;20016;-79
2022/05/25 12:26:38;;;;;;;13.98;6.68;;;;;;;17.76;21.41;99639.31;6200276;23;20012;-79
2022/05/25 12:29:30;;;;;;;15.38;9.20;;;;;;;17.72;21.56;99649.13;6224106;23;20023;-79
2022/05/25 12:31:58;;;;;;;21.15;13.57;;;;;;;17.61;21.76;99640.81;6224666;23;20043;-80
2022/05/25 12:34:37;;;;;;;6.28;4.13;;;;;;;17.73;21.74;99660.50;6172995;23;20040;-80
2022/05/25 12:37:04;;;;;;;8.02;3.55;;;;;;;17.63;21.82;99659.16;6221428;23;20023;-81
2022/05/25 12:39:42;;;;;;;5.05;3.55;;;;;;;17.56;22.02;99663.78;6249102;23;20016;-79
2022/05/25 12:42:24;;;;;;;5.75;2.88;;;;;;;17.59;22.19;99661.91;6160286;23;1461738;-80
2022/05/25 12:50:47;;;;;;;6.60;3.83;;;;;;;17.95;22.51;99649.94;6253490;23;20079;-81
2022/05/25 12:53:39;;;;;;;6.60;2.60;;;;;;;17.82;22.44;99619.78;6218282;23;20011;-78
2022/05/25 12:56:21;;;;;;;7.82;5.35;;;;;;;18.30;22.07;99649.41;6219551;23;20016;-79
2022/05/25 12:58:57;;;;;;;42.28;24.90;;;;;;;18.55;21.86;99649.16;6195899;23;20078;-78
2022/05/25 13:01:23;;;;;;;69.50;44.13;;;;;;;18.73;21.64;99646.63;6245623;23;20008;-78
2022/05/25 13:03:49;;;;;;;6.13;2.92;;;;;;;18.65;21.47;99650.47;6193155;23;20031;-81
2022/05/25 13:06:53;;;;;;;10.00;4.95;;;;;;;18.34;21.85;99641.28;6245373;23;20107;-78
2022/05/25 13:09:45;;;;;;;4.90;2.80;;;;;;;18.05;22.32;99645.19;6196214;23;20039;-79
2022/05/25 13:12:44;;;;;;;20.65;13.18;;;;;;;17.95;22.15;99622.75;6222654;23;20026;-80
2022/05/25 13:15:24;;;;;;;;;;;;;;;18.04;22.24;99638.22;6173581;23;20015;-80
2022/05/25 13:18:41;;;;;;;10.35;5.75;;;;;;;17.94;22.11;99637.72;6223694;23;19984;-81
2022/05/25 13:21:09;;;;;;;11.52;7.20;;;;;;;17.85;22.24;99643.34;6171776;23;20035;-81
2022/05/25 13:24:30;;;;;;;9.93;6.55;;;;;;;17.93;22.59;99636.00;6194985;23;20019;-77